createdAt,value
2023-05-28T00:00:08.039Z,5.13
2023-05-28T00:02:42.421Z,4.38
2023-05-28T00:05:12.911Z,5.43
2023-05-28T00:07:43.703Z,5.50
2023-05-28T00:10:16.315Z,5.47
2023-05-28T00:12:46.302Z,5.90
2023-05-28T00:15:16.129Z,5.63
2023-05-28T00:17:46.052Z,5.68
2023-05-28T00:20:16.052Z,4.25
2023-05-28T00:22:46.895Z,4.72
2023-05-28T00:25:19.330Z,4.05
2023-05-28T00:27:49.172Z,3.90
2023-05-28T00:30:19.103Z,4.10
2023-05-28T00:32:49.262Z,4.38
2023-05-28T00:35:19.404Z,4.00
2023-05-28T00:37:49.201Z,4.18
2023-05-28T00:40:21.992Z,4.05
2023-05-28T00:42:52.405Z,3.88
2023-05-28T00:45:22.375Z,4.97
2023-05-28T00:47:53.060Z,4.43
2023-05-28T00:50:23.115Z,4.70
2023-05-28T00:52:54.050Z,5.40
2023-05-28T00:55:27.085Z,4.93
2023-05-28T00:58:05.049Z,6.18
2023-05-28T01:00:35.213Z,5.05
2023-05-28T01:03:05.458Z,4.78
2023-05-28T01:05:35.865Z,5.28
2023-05-28T01:08:07.794Z,6.40
2023-05-28T01:10:40.504Z,5.35
2023-05-28T01:13:11.469Z,6.32
2023-05-28T01:15:41.541Z,6.32
2023-05-28T01:18:11.577Z,6.22
2023-05-28T01:20:43.055Z,4.55
2023-05-28T01:23:16.808Z,4.50
2023-05-28T01:25:49.685Z,4.15
2023-05-28T01:28:21.510Z,4.55
2023-05-28T01:30:51.666Z,4.68
2023-05-28T01:33:22.312Z,4.90
2023-05-28T01:35:53.063Z,4.63
2023-05-28T01:38:24.517Z,4.60
2023-05-28T01:40:58.062Z,3.72
2023-05-28T01:43:28.461Z,3.33
2023-05-28T01:45:58.572Z,4.15
2023-05-28T01:48:29.909Z,4.47
2023-05-28T01:51:00.485Z,4.88
2023-05-28T01:53:30.361Z,4.55
2023-05-28T01:56:04.136Z,3.95
2023-05-28T01:58:34.630Z,4.97
2023-05-28T02:01:08.460Z,4.43
2023-05-28T02:03:38.633Z,4.68
2023-05-28T02:06:09.827Z,4.38
2023-05-28T02:08:39.842Z,5.70
2023-05-28T02:11:12.390Z,4.97
2023-05-28T02:13:43.197Z,5.30
2023-05-28T02:18:51.154Z,5.43
2023-05-28T02:21:21.151Z,4.88
2023-05-28T02:23:52.532Z,4.80
2023-05-28T02:26:26.494Z,4.68
2023-05-28T02:28:56.430Z,4.35
2023-05-28T02:31:26.464Z,4.95
2023-05-28T02:33:56.383Z,5.53
2023-05-28T02:36:26.820Z,4.72
2023-05-28T02:38:56.728Z,4.60
2023-05-28T02:41:29.884Z,4.97
2023-05-28T02:44:00.732Z,3.92
2023-05-28T02:46:30.876Z,6.25
2023-05-28T02:49:01.144Z,4.55
2023-05-28T02:51:32.534Z,4.50
2023-05-28T02:54:09.048Z,4.22
2023-05-28T02:56:41.557Z,3.88
2023-05-28T02:59:12.248Z,4.93
2023-05-28T03:01:43.043Z,4.20
2023-05-28T03:04:13.465Z,4.15
2023-05-28T03:06:43.437Z,4.07
2023-05-28T03:09:14.498Z,4.35
2023-05-28T03:11:48.404Z,4.88
2023-05-28T03:14:18.209Z,5.28
2023-05-28T03:16:48.748Z,4.43
2023-05-28T03:19:26.124Z,4.40
2023-05-28T03:21:56.143Z,4.35
2023-05-28T03:24:28.732Z,4.75
2023-05-28T03:27:03.841Z,4.78
2023-05-28T03:29:33.950Z,4.10
2023-05-28T03:32:10.348Z,4.63
2023-05-28T03:34:40.580Z,5.28
2023-05-28T03:37:10.842Z,3.38
2023-05-28T03:39:41.587Z,3.97
2023-05-28T03:42:14.132Z,3.85
2023-05-28T03:44:44.420Z,4.28
2023-05-28T03:47:14.468Z,4.60
2023-05-28T03:49:45.618Z,4.65
2023-05-28T03:52:15.480Z,4.72
2023-05-28T03:54:51.852Z,5.70
2023-05-28T03:57:24.363Z,5.07
2023-05-28T03:59:57.027Z,4.90
2023-05-28T04:02:27.349Z,4.53
2023-05-28T04:04:57.279Z,4.53
2023-05-28T04:07:27.084Z,4.72
2023-05-28T04:09:56.887Z,4.68
2023-05-28T04:12:29.275Z,4.35
2023-05-28T04:15:00.282Z,5.38
2023-05-28T04:17:30.476Z,4.63
2023-05-28T04:20:00.363Z,4.93
2023-05-28T04:22:30.934Z,4.53
2023-05-28T04:25:00.766Z,5.50
2023-05-28T04:27:33.200Z,5.45
2023-05-28T04:30:03.149Z,5.70
2023-05-28T04:32:33.313Z,5.10
2023-05-28T04:37:38.160Z,5.00
2023-05-28T04:40:13.238Z,4.95
2023-05-28T04:42:45.661Z,4.95
2023-05-28T04:45:15.737Z,5.35
2023-05-28T04:47:48.883Z,5.53
2023-05-28T04:50:19.041Z,4.60
2023-05-28T04:52:48.880Z,5.07
2023-05-28T04:55:21.321Z,4.75
2023-05-28T04:57:53.746Z,5.28
2023-05-28T05:00:25.317Z,4.72
2023-05-28T05:02:57.596Z,5.85
2023-05-28T05:05:27.808Z,5.43
2023-05-28T05:07:57.673Z,5.22
2023-05-28T05:10:27.650Z,4.40
2023-05-28T05:13:00.812Z,4.80
2023-05-28T05:15:31.915Z,5.30
2023-05-28T05:18:01.860Z,6.10
2023-05-28T05:20:32.407Z,6.93
2023-05-28T05:23:02.348Z,6.07
2023-05-28T05:25:32.321Z,6.03
2023-05-28T05:28:05.731Z,6.68
2023-05-28T05:30:36.022Z,5.90
2023-05-28T05:33:07.130Z,6.38
2023-05-28T05:35:49.572Z,5.88
2023-05-28T05:38:42.528Z,5.80
2023-05-28T05:41:27.894Z,6.65
2023-05-28T05:44:13.013Z,7.07
2023-05-28T05:46:43.005Z,7.65
2023-05-28T05:49:13.137Z,6.82
2023-05-28T05:51:43.107Z,6.60
2023-05-28T05:54:13.438Z,7.60
2023-05-28T05:56:44.655Z,6.60
2023-05-28T05:59:18.390Z,7.03
2023-05-28T06:01:48.417Z,6.95
2023-05-28T06:04:18.466Z,6.57
2023-05-28T06:07:14.664Z,6.38
2023-05-28T06:10:24.522Z,5.72
2023-05-28T06:12:54.687Z,6.07
2023-05-28T06:15:27.463Z,6.40
2023-05-28T06:17:57.511Z,6.55
2023-05-28T06:20:28.520Z,6.97
2023-05-28T06:22:58.452Z,6.32
2023-05-28T06:25:29.414Z,7.18
2023-05-28T06:28:00.027Z,6.30
2023-05-28T06:33:03.047Z,6.38
2023-05-28T06:35:33.826Z,7.22
2023-05-28T06:40:34.977Z,5.85
2023-05-28T06:43:05.371Z,7.35
2023-05-28T06:45:50.837Z,6.93
2023-05-28T06:48:21.197Z,7.00
2023-05-28T06:50:51.232Z,6.88
2023-05-28T06:53:21.656Z,6.97
2023-05-28T06:55:52.286Z,7.53
2023-05-28T06:58:41.384Z,6.15
2023-05-28T07:01:14.081Z,7.30
2023-05-28T07:03:52.249Z,6.68
2023-05-28T07:06:31.474Z,6.82
2023-05-28T07:09:01.943Z,6.40
2023-05-28T07:11:31.890Z,5.40
2023-05-28T07:14:01.874Z,6.80
2023-05-28T07:16:34.786Z,6.40
2023-05-28T07:19:04.962Z,5.93
2023-05-28T07:21:36.262Z,7.82
2023-05-28T07:24:06.470Z,6.28
2023-05-28T07:26:38.068Z,6.22
2023-05-28T07:29:08.482Z,6.97
2023-05-28T07:31:41.229Z,6.75
2023-05-28T07:34:13.367Z,7.40
2023-05-28T07:36:45.732Z,6.05
2023-05-28T07:39:17.468Z,6.47
2023-05-28T07:44:30.624Z,6.03
2023-05-28T07:47:03.759Z,5.75
2023-05-28T07:53:02.788Z,5.30
2023-05-28T07:55:33.193Z,6.28
2023-05-28T07:58:03.909Z,6.13
2023-05-28T08:00:38.010Z,5.30
2023-05-28T08:03:13.282Z,5.13
2023-05-28T08:05:48.041Z,5.63
2023-05-28T08:10:48.610Z,5.20
2023-05-28T08:13:19.127Z,5.75
2023-05-28T08:15:49.207Z,6.93
2023-05-28T08:18:24.097Z,4.68
2023-05-28T08:20:56.637Z,5.88
2023-05-28T08:23:27.579Z,6.03
2023-05-28T08:25:57.771Z,5.30
2023-05-28T08:28:35.113Z,5.60
2023-05-28T08:31:06.807Z,5.47
2023-05-28T08:33:52.952Z,5.03
2023-05-28T08:36:24.038Z,4.90
2023-05-28T08:38:57.697Z,5.00
2023-05-28T08:41:28.674Z,5.22
2023-05-28T08:43:58.740Z,4.72
2023-05-28T08:46:29.584Z,4.93
2023-05-28T08:49:22.109Z,5.25
2023-05-28T08:51:53.433Z,4.45
2023-05-28T08:54:26.984Z,5.38
2023-05-28T08:59:28.923Z,5.03
2023-05-28T09:02:00.024Z,4.30
2023-05-28T09:04:32.762Z,4.57
2023-05-28T09:07:02.793Z,5.25
2023-05-28T09:09:42.178Z,4.15
2023-05-28T09:12:15.159Z,4.75
2023-05-28T09:14:48.947Z,4.63
2023-05-28T09:17:19.114Z,5.03
2023-05-28T09:19:56.710Z,4.75
2023-05-28T09:22:26.902Z,4.03
2023-05-28T09:25:07.939Z,4.28
2023-05-28T09:27:54.381Z,4.78
2023-05-28T09:30:24.460Z,4.15
2023-05-28T09:33:01.738Z,4.20
2023-05-28T09:35:35.505Z,4.55
2023-05-28T09:38:08.983Z,6.00
2023-05-28T09:40:42.955Z,4.20
2023-05-28T09:43:13.963Z,4.10
2023-05-28T09:45:44.047Z,4.47
2023-05-28T09:48:14.168Z,4.43
2023-05-28T09:50:47.102Z,3.90
2023-05-28T09:53:18.751Z,4.35
2023-05-28T09:55:49.170Z,4.13
2023-05-28T09:58:20.605Z,3.85
2023-05-28T10:00:56.023Z,3.92
2023-05-28T10:03:28.127Z,4.13
2023-05-28T10:06:03.612Z,3.95
2023-05-28T10:08:38.541Z,4.32
2023-05-28T10:11:10.300Z,4.30
2023-05-28T10:13:40.529Z,4.43
2023-05-28T10:16:11.069Z,4.50
2023-05-28T10:18:41.914Z,4.05
2023-05-28T10:21:15.253Z,3.67
2023-05-28T10:23:47.102Z,4.85
2023-05-28T10:26:17.890Z,4.03
2023-05-28T10:28:47.951Z,4.10
2023-05-28T10:31:25.355Z,4.90
2023-05-28T10:33:55.419Z,3.65
2023-05-28T10:36:28.074Z,4.20
2023-05-28T10:39:02.463Z,4.63
2023-05-28T10:41:35.443Z,5.22
2023-05-28T10:44:10.076Z,3.80
2023-05-28T10:46:41.246Z,4.50
2023-05-28T10:49:14.724Z,4.40
2023-05-28T10:51:58.846Z,4.28
2023-05-28T10:54:46.402Z,4.35
2023-05-28T10:57:17.854Z,5.43
2023-05-28T10:59:50.550Z,4.57
2023-05-28T11:02:22.617Z,3.65
2023-05-28T11:04:56.966Z,4.63
2023-05-28T11:07:34.374Z,4.15
2023-05-28T11:10:05.305Z,4.20
2023-05-28T11:12:38.365Z,3.53
2023-05-28T11:15:10.360Z,5.07
2023-05-28T11:17:41.787Z,4.28
2023-05-28T11:20:20.831Z,4.53
2023-05-28T11:22:53.616Z,4.68
2023-05-28T11:25:26.843Z,3.85
2023-05-28T11:27:59.914Z,4.05
2023-05-28T11:30:29.946Z,4.53
2023-05-28T11:33:00.228Z,4.13
2023-05-28T11:35:31.006Z,4.22
2023-05-28T11:38:06.348Z,4.00
2023-05-28T11:40:37.792Z,4.53
2023-05-28T11:43:07.881Z,3.75
2023-05-28T11:45:41.194Z,4.32
2023-05-28T11:48:15.169Z,4.18
2023-05-28T11:50:45.570Z,4.28
2023-05-28T11:53:18.430Z,4.03
2023-05-28T11:55:48.624Z,4.75
2023-05-28T11:58:20.516Z,4.85
2023-05-28T12:00:50.637Z,5.38
2023-05-28T12:06:45.182Z,4.47
2023-05-28T12:09:26.800Z,3.80
2023-05-28T12:12:19.801Z,5.68
2023-05-28T12:14:51.812Z,4.05
2023-05-28T12:17:58.790Z,4.07
2023-05-28T12:23:46.669Z,4.35
2023-05-28T12:26:19.301Z,4.65
2023-05-28T12:28:49.086Z,4.53
2023-05-28T12:31:19.648Z,5.28
2023-05-28T12:33:49.553Z,4.07
2023-05-28T12:36:19.340Z,4.03
2023-05-28T12:38:49.097Z,4.35
2023-05-28T12:41:22.697Z,4.45
2023-05-28T12:43:52.487Z,4.40
2023-05-28T12:46:22.346Z,4.88
2023-05-28T12:48:52.188Z,4.25
2023-05-28T12:51:22.020Z,4.40
2023-05-28T12:53:51.794Z,4.30
2023-05-28T12:56:24.220Z,5.00
2023-05-28T12:58:54.339Z,4.13
2023-05-28T13:01:24.723Z,3.50
2023-05-28T13:03:54.855Z,4.35
2023-05-28T13:06:24.702Z,4.78
2023-05-28T13:08:54.460Z,4.57
2023-05-28T13:11:27.735Z,3.90
2023-05-28T13:13:57.593Z,4.10
2023-05-28T13:16:27.454Z,4.20
2023-05-28T13:18:57.472Z,4.40
2023-05-28T13:21:27.339Z,4.18
2023-05-28T13:23:57.126Z,4.15
2023-05-28T13:26:29.710Z,3.83
2023-05-28T13:28:59.574Z,4.35
2023-05-28T13:31:29.385Z,4.43
2023-05-28T13:34:01.018Z,4.55
2023-05-28T13:36:33.667Z,4.88
2023-05-28T13:39:05.323Z,4.55
2023-05-28T13:41:37.789Z,4.57
2023-05-28T13:44:07.585Z,4.10
2023-05-28T13:46:39.089Z,4.35
2023-05-28T13:49:08.905Z,4.35
2023-05-28T13:51:40.639Z,4.80
2023-05-28T13:54:10.584Z,4.50
2023-05-28T13:56:43.004Z,4.18
2023-05-28T13:59:12.982Z,4.32
2023-05-28T14:01:42.954Z,4.63
2023-05-28T14:04:12.910Z,3.72
2023-05-28T14:06:42.783Z,3.33
2023-05-28T14:09:12.626Z,4.30
2023-05-28T14:12:15.762Z,3.90
2023-05-28T14:14:34.844Z,3.42
2023-05-28T14:17:04.717Z,3.67
2023-05-28T14:19:34.704Z,3.15
2023-05-28T14:22:04.713Z,3.90
2023-05-28T14:24:34.753Z,3.72
2023-05-28T14:27:07.880Z,3.67
2023-05-28T14:29:37.734Z,3.20
2023-05-28T14:32:08.310Z,3.50
2023-05-28T14:34:38.166Z,3.15
2023-05-28T14:37:08.017Z,3.67
2023-05-28T14:39:37.849Z,3.05
2023-05-28T14:42:10.825Z,3.10
2023-05-28T14:44:40.946Z,3.35
2023-05-28T14:47:10.901Z,3.40
2023-05-28T14:49:40.884Z,3.50
2023-05-28T14:52:27.191Z,3.20
2023-05-28T14:54:57.414Z,2.83
2023-05-28T14:57:31.403Z,3.20
2023-05-28T15:00:06.673Z,2.85
2023-05-28T15:02:36.662Z,2.97
2023-05-28T15:05:08.450Z,2.88
2023-05-28T15:07:38.308Z,2.85
2023-05-28T15:10:08.786Z,2.75
2023-05-28T15:12:41.280Z,3.15
2023-05-28T15:15:12.662Z,3.00
2023-05-28T15:17:42.575Z,3.38
2023-05-28T15:20:13.091Z,3.05
2023-05-28T15:22:42.927Z,2.75
2023-05-28T15:25:13.593Z,3.25
2023-05-28T15:27:46.578Z,3.00
2023-05-28T15:30:17.128Z,3.42
2023-05-28T15:32:47.516Z,3.03
2023-05-28T15:35:17.671Z,3.13
2023-05-28T15:37:48.328Z,3.42
2023-05-28T15:40:18.711Z,3.92
2023-05-28T15:42:52.026Z,2.92
2023-05-28T15:45:22.741Z,2.60
2023-05-28T15:47:52.620Z,3.13
2023-05-28T15:50:22.498Z,3.10
2023-05-28T15:52:53.173Z,3.05
2023-05-28T15:55:23.678Z,4.15
2023-05-28T15:57:56.349Z,2.90
2023-05-28T16:00:26.930Z,2.70
2023-05-28T16:02:57.836Z,3.40
2023-05-28T16:05:28.389Z,2.95
2023-05-28T16:07:58.569Z,2.90
2023-05-28T16:10:28.636Z,3.30
2023-05-28T16:13:02.752Z,2.95
2023-05-28T16:15:34.658Z,2.60
2023-05-28T16:18:05.963Z,3.13
2023-05-28T16:20:36.469Z,2.85
2023-05-28T16:25:36.943Z,3.30
2023-05-28T16:30:39.579Z,3.42
2023-05-28T16:33:10.849Z,3.60
2023-05-28T16:35:41.268Z,2.97
2023-05-28T16:38:11.633Z,3.25
2023-05-28T16:43:14.520Z,3.33
2023-05-28T16:45:44.801Z,3.70
2023-05-28T16:48:15.188Z,3.50
2023-05-28T16:50:45.625Z,3.35
2023-05-28T16:53:16.853Z,3.33
2023-05-28T16:55:47.219Z,3.92
2023-05-28T17:00:49.532Z,2.95
2023-05-28T17:03:19.349Z,3.25
2023-05-28T17:05:49.261Z,3.47
2023-05-28T17:08:19.122Z,3.38
2023-05-28T17:10:49.134Z,3.30
2023-05-28T17:13:21.582Z,3.60
2023-05-28T17:15:51.849Z,2.83
2023-05-28T17:18:21.751Z,3.30
2023-05-28T17:20:51.963Z,3.85
2023-05-28T17:23:22.004Z,3.05
2023-05-28T17:25:51.979Z,3.03
2023-05-28T17:28:24.698Z,3.17
2023-05-28T17:30:54.482Z,3.22
2023-05-28T17:33:24.332Z,2.78
2023-05-28T17:35:54.099Z,2.85
2023-05-28T17:38:24.076Z,3.33
2023-05-28T17:40:57.430Z,3.30
2023-05-28T17:43:30.091Z,3.20
2023-05-28T17:46:04.394Z,2.78
2023-05-28T17:48:34.455Z,3.42
2023-05-28T17:51:04.979Z,2.88
2023-05-28T17:56:19.497Z,2.92
2023-05-28T17:58:51.964Z,2.85
2023-05-28T18:01:22.294Z,2.80
2023-05-28T18:03:52.238Z,2.75
2023-05-28T18:06:22.352Z,3.28
2023-05-28T18:08:52.095Z,3.03
2023-05-28T18:11:23.983Z,3.00
2023-05-28T18:13:56.473Z,2.58
2023-05-28T18:16:26.554Z,2.80
2023-05-28T18:19:02.344Z,2.47
2023-05-28T18:24:09.965Z,3.00
2023-05-28T18:26:40.044Z,2.60
2023-05-28T18:29:12.763Z,3.10
2023-05-28T18:31:44.134Z,2.65
2023-05-28T18:34:14.042Z,2.85
2023-05-28T18:36:45.838Z,2.85
2023-05-28T18:39:15.822Z,3.00
2023-05-28T18:41:46.880Z,2.45
2023-05-28T18:44:19.282Z,3.15
2023-05-28T18:46:49.250Z,2.50
2023-05-28T18:49:19.300Z,3.03
2023-05-28T18:51:49.498Z,2.90
2023-05-28T18:54:19.776Z,2.67
2023-05-28T18:56:49.543Z,2.90
2023-05-28T18:59:22.012Z,2.75
2023-05-28T19:01:51.873Z,2.97
2023-05-28T19:04:21.714Z,2.30
2023-05-28T19:06:51.929Z,2.85
2023-05-28T19:09:21.808Z,2.78
2023-05-28T19:11:51.870Z,2.55
2023-05-28T19:14:24.253Z,2.72
2023-05-28T19:16:54.153Z,2.80
2023-05-28T19:19:24.874Z,2.70
2023-05-28T19:21:54.899Z,2.90
2023-05-28T19:24:24.755Z,2.65
2023-05-28T19:26:58.196Z,2.92
2023-05-28T19:29:31.340Z,2.63
2023-05-28T19:32:01.289Z,2.80
2023-05-28T19:34:33.313Z,2.90
2023-05-28T19:37:03.677Z,2.78
2023-05-28T19:39:33.449Z,2.75
2023-05-28T19:42:03.407Z,2.67
2023-05-28T19:44:36.152Z,2.90
2023-05-28T19:47:06.618Z,2.78
2023-05-28T19:49:36.718Z,2.30
2023-05-28T19:52:06.628Z,2.53
2023-05-28T19:54:36.470Z,2.55
2023-05-28T19:57:08.055Z,2.30
2023-05-28T19:59:40.657Z,2.55
2023-05-28T20:02:10.830Z,2.50
2023-05-28T20:04:43.546Z,2.92
2023-05-28T20:07:13.401Z,2.42
2023-05-28T20:09:43.129Z,2.53
2023-05-28T20:12:13.046Z,2.50
2023-05-28T20:14:46.421Z,2.65
2023-05-28T20:17:16.342Z,2.22
2023-05-28T20:19:46.610Z,2.58
2023-05-28T20:22:16.409Z,2.65
2023-05-28T20:24:46.566Z,3.13
2023-05-28T20:27:16.552Z,2.53
2023-05-28T20:29:48.972Z,2.70
2023-05-28T20:32:22.091Z,3.03
2023-05-28T20:34:51.933Z,2.80
2023-05-28T20:37:21.804Z,2.20
2023-05-28T20:39:51.612Z,2.70
2023-05-28T20:42:21.562Z,2.67
2023-05-28T20:44:56.054Z,2.97
2023-05-28T20:47:25.995Z,3.13
2023-05-28T20:49:55.876Z,2.90
2023-05-28T20:52:25.830Z,2.88
2023-05-28T20:54:55.723Z,2.80
2023-05-28T20:57:49.602Z,3.10
2023-05-28T21:00:42.927Z,3.15
2023-05-28T21:03:13.026Z,2.88
2023-05-28T21:05:42.931Z,2.72
2023-05-28T21:08:12.820Z,2.78
2023-05-28T21:10:44.322Z,2.88
2023-05-28T21:13:14.092Z,2.50
2023-05-28T21:15:46.774Z,2.50
2023-05-28T21:18:16.740Z,2.30
2023-05-28T21:20:46.737Z,2.78
2023-05-28T21:23:16.691Z,2.42
2023-05-28T21:25:47.371Z,2.17
2023-05-28T21:30:49.327Z,2.60
2023-05-28T21:33:19.260Z,2.40
2023-05-28T21:35:49.095Z,2.45
2023-05-28T21:38:18.851Z,2.10
2023-05-28T21:40:48.874Z,2.20
2023-05-28T21:43:18.788Z,1.95
2023-05-28T21:45:51.439Z,2.30
2023-05-28T21:48:21.548Z,2.42
2023-05-28T21:50:51.512Z,3.20
2023-05-28T22:22:31.144Z,2.60
2023-05-28T22:25:01.135Z,2.20
2023-05-28T22:27:31.196Z,2.40
2023-05-28T22:30:01.855Z,2.75
2023-05-28T22:32:31.726Z,3.03
2023-05-28T22:35:01.821Z,2.65
2023-05-28T22:37:34.414Z,2.20
2023-05-28T22:40:06.319Z,2.97
2023-05-28T22:42:37.183Z,2.30
2023-05-28T22:45:07.746Z,2.85
2023-05-28T22:47:37.883Z,3.00
2023-05-28T22:50:08.898Z,2.70
2023-05-28T22:52:42.935Z,3.30
2023-05-28T22:55:13.952Z,2.65
2023-05-28T22:57:43.862Z,2.58
2023-05-28T23:00:15.381Z,3.22
2023-05-28T23:02:48.118Z,3.00
2023-05-28T23:05:18.859Z,2.60
2023-05-28T23:07:51.548Z,3.50
2023-05-28T23:10:21.640Z,2.85
2023-05-28T23:12:51.533Z,2.60
2023-05-28T23:15:21.692Z,2.35
2023-05-28T23:17:54.883Z,2.40
2023-05-28T23:20:25.114Z,2.55
2023-05-28T23:22:57.730Z,3.15
2023-05-28T23:25:28.849Z,2.83
2023-05-28T23:27:58.734Z,3.03
2023-05-28T23:30:28.786Z,2.65
2023-05-28T23:32:58.817Z,2.47
2023-05-28T23:35:28.801Z,3.15
2023-05-28T23:38:01.331Z,3.83
2023-05-28T23:40:31.657Z,2.65
2023-05-28T23:43:01.882Z,3.38
2023-05-28T23:45:32.402Z,3.95
2023-05-28T23:48:02.556Z,2.55
2023-05-28T23:50:32.758Z,2.58
2023-05-28T23:53:05.224Z,3.13
2023-05-28T23:55:35.066Z,2.33
2023-05-28T23:58:05.657Z,2.90
